Gazpromneft East — UBOF4 — position and weather

sailwx.info

Track history (hours):
 
Tides and Currents Weather Stations Pressure Air Temp Water Temp Dewpoint Dewpoint Depression Visibility Wind Speed Wind Dir Waves Ship Positions

Gazpromneft East

Last reported at 2015-Aug-05 09:33 UTC. Time now 2015-Aug-05 10:28 UTC.
Position N 59°53' E 030°13'.

Length 79 m; draft 5 m.

Type: Tanker. MMSI: 273335320.

Date/timePositionNaut miles runAvg speedWind from/ knotsBaromVisibWave heightAir tempDewpointWater temp
2015-Aug-05 09:33N 59°53' E 030°13'0 0.0
2015-Aug-05 08:33N 59°53' E 030°13'0 0.0
2015-Aug-05 07:33N 59°53' E 030°13'0 0.1
2015-Aug-05 06:33N 59°53' E 030°13'0 0.5
2015-Aug-05 05:33N 59°53' E 030°13'0 0.0
2015-Aug-05 04:33N 59°53' E 030°13'0 0.0
2015-Aug-05 03:33N 59°53' E 030°13'0 0.0
2015-Aug-05 02:33N 59°53' E 030°13'0 0.0
2015-Aug-05 01:32N 59°53' E 030°13'0 0.0
2015-Aug-05 00:32N 59°53' E 030°13'0 0.3
2015-Aug-04 23:33N 59°53' E 030°13'1 1.0
2015-Aug-04 22:33N 59°52' E 030°12'0 0.0
2015-Aug-04 21:33N 59°52' E 030°12'0 0.0
2015-Aug-04 20:33N 59°52' E 030°12'1 1.0
2015-Aug-04 19:33N 59°53' E 030°13'1 0.5
2015-Aug-04 18:34N 59°53' E 030°14'0 0.0
2015-Aug-04 17:33N 59°53' E 030°14'0 0.0
2015-Aug-04 16:33N 59°53' E 030°14'3 3.2
2015-Aug-04 15:33N 59°56' E 030°17'0 0.1
2015-Aug-04 14:33N 59°56' E 030°16'0 0.0
2015-Aug-04 13:33N 59°56' E 030°16'0 0.0
2015-Aug-04 12:33N 59°56' E 030°16'0 0.0
2015-Aug-04 11:33N 59°56' E 030°16'0 0.0
2015-Aug-04 10:33N 59°56' E 030°16'0 0.0
2015-Aug-04 09:33N 59°56' E 030°16'0 0.0
2015-Aug-04 08:33N 59°56' E 030°16'0 0.0
2015-Aug-04 07:33N 59°56' E 030°16'2 1.8
2015-Aug-04 06:33N 59°55' E 030°14'7 7.1
2015-Aug-04 05:33N 59°55' E 029°60'7 0.7
2015-Aug-03 19:05N 59°56' E 029°46'0 0.0
2015-Aug-03 18:23N 59°56' E 029°46'5 5.5
2015-Aug-03 17:33N 59°56' E 029°55'8 8.3
2015-Aug-03 16:33N 59°57' E 030°12'0 0.0
2015-Aug-03 15:33N 59°57' E 030°12'0 0.0
2015-Aug-03 14:33N 59°57' E 030°12'0 0.0
2015-Aug-03 13:33N 59°57' E 030°12'0 0.0
2015-Aug-03 12:33N 59°57' E 030°12'0 0.0
2015-Aug-03 11:33N 59°57' E 030°12'0 0.0
2015-Aug-03 10:33N 59°57' E 030°12'0 0.0
2015-Aug-03 09:33N 59°57' E 030°12'0 0.0
2015-Aug-03 08:33N 59°57' E 030°12'0 0.0
2015-Aug-03 07:33N 59°57' E 030°12'0 0.0
2015-Aug-03 06:33N 59°57' E 030°12'7 7.1
2015-Aug-03 05:33N 59°56' E 029°58'6 5.6
2015-Aug-03 04:33N 59°56' E 029°46'0 0.0
2015-Aug-03 03:33N 59°56' E 029°46'0 0.0
2015-Aug-03 02:32N 59°56' E 029°46'0 0.0
2015-Aug-03 01:33N 59°56' E 029°46'0 0.0
2015-Aug-03 00:33N 59°56' E 029°46'0 0.0
2015-Aug-02 23:33N 59°56' E 029°46'0 0.2
2015-Aug-02 22:33N 59°56' E 029°47'7 7.3
2015-Aug-02 21:33N 59°55' E 030°01'5 5.5
2015-Aug-02 20:33N 59°53' E 030°11'0 0.0
2015-Aug-02 19:33N 59°53' E 030°11'0 0.0
2015-Aug-02 18:33N 59°53' E 030°11'0 0.0
2015-Aug-02 17:33N 59°53' E 030°11'0 0.0
2015-Aug-02 16:33N 59°53' E 030°11'0 0.0
2015-Aug-02 15:33N 59°53' E 030°11'0 0.0
2015-Aug-02 14:33N 59°53' E 030°11'0 0.0
2015-Aug-02 13:33N 59°53' E 030°11'0 0.0
2015-Aug-02 12:33N 59°53' E 030°11'0 0.0
2015-Aug-02 11:33N 59°53' E 030°11'0 0.0
2015-Aug-02 10:33N 59°53' E 030°11'1 1.2
2015-Aug-02 09:32N 59°53' E 030°14'0 0.0
2015-Aug-02 08:33N 59°53' E 030°14'0 0.0
2015-Aug-02 07:33N 59°53' E 030°14'0 0.0
2015-Aug-02 06:33N 59°53' E 030°14'0 0.0
2015-Aug-02 05:33N 59°53' E 030°14'0 0.0
2015-Aug-02 04:33N 59°53' E 030°14'0 0.4
2015-Aug-02 03:33N 59°53' E 030°13'0 0.2
2015-Aug-02 02:33N 59°54' E 030°14'0 0.0
2015-Aug-02 01:33N 59°54' E 030°14'0 0.0
2015-Aug-02 00:33N 59°54' E 030°14'0 0.0
2015-Aug-01 23:33N 59°54' E 030°14'0 0.0
2015-Aug-01 22:33N 59°54' E 030°14'0 0.0
2015-Aug-01 21:33N 59°54' E 030°14'0 0.0
2015-Aug-01 20:33N 59°54' E 030°14'0 0.0
2015-Aug-01 19:33N 59°54' E 030°14'0 0.0
2015-Aug-01 18:33N 59°54' E 030°14'0 0.0
2015-Aug-01 17:33N 59°54' E 030°14'1 0.6
2015-Aug-01 16:33N 59°53' E 030°13'0 0.0
2015-Aug-01 15:33N 59°53' E 030°13'0 0.0
2015-Aug-01 14:33N 59°53' E 030°13'0 0.2
2015-Aug-01 13:33N 59°53' E 030°13'8 7.9
2015-Aug-01 12:33N 59°56' E 029°58'6 5.9
2015-Aug-01 11:32N 59°56' E 029°46'0 0.0
2015-Aug-01 10:33N 59°56' E 029°46'0 0.0
2015-Aug-01 09:32N 59°56' E 029°46'0 0.0
2015-Aug-01 08:25N 59°56' E 029°46'0 0.0
2015-Aug-01 07:32N 59°56' E 029°46'0 0.0
2015-Aug-01 06:29N 59°56' E 029°46'0 0.0
2015-Aug-01 05:33N 59°56' E 029°46'0 0.0
2015-Aug-01 04:34N 59°56' E 029°46'0 0.0
2015-Aug-01 03:15N 59°56' E 029°46'0 0.0
2015-Aug-01 02:33N 59°56' E 029°46'0 0.0
2015-Aug-01 01:33N 59°56' E 029°46'0 0.0
2015-Aug-01 00:30N 59°56' E 029°46'0 0.0
2015-Jul-31 23:30N 59°56' E 029°46'0 0.0
2015-Jul-31 22:32N 59°56' E 029°46'0 0.0
2015-Jul-31 21:32N 59°56' E 029°46'0 0.0
2015-Jul-31 20:33N 59°56' E 029°46'0 0.0
2015-Jul-31 19:32N 59°56' E 029°46'0 0.0
2015-Jul-31 18:21N 59°56' E 029°46'0 0.0
2015-Jul-31 17:31N 59°56' E 029°46'4 4.0
2015-Jul-31 16:33N 59°57' E 029°54'9 8.6
2015-Jul-31 15:33N 59°57' E 030°11'0 0.0
2015-Jul-31 14:33N 59°57' E 030°11'0 0.0
2015-Jul-31 13:33N 59°57' E 030°11'0 0.0
2015-Jul-31 12:33N 59°57' E 030°11'0 0.0
2015-Jul-31 11:33N 59°57' E 030°11'0 0.0
2015-Jul-31 10:33N 59°57' E 030°11'0 0.0
2015-Jul-31 09:33N 59°57' E 030°11'0 0.0
2015-Jul-31 08:33N 59°57' E 030°11'5 4.6
2015-Jul-31 07:33N 59°55' E 030°03'6 5.6
2015-Jul-31 06:33N 59°53' E 030°14'0 0.0
2015-Jul-31 05:33N 59°53' E 030°14'0 0.0
2015-Jul-31 04:33N 59°53' E 030°14'0 0.0
2015-Jul-31 03:33N 59°53' E 030°14'0 0.0
2015-Jul-31 02:33N 59°53' E 030°14'0 0.0
2015-Jul-31 01:33N 59°53' E 030°14'0 0.0
2015-Jul-31 00:33N 59°53' E 030°14'0 0.0
2015-Jul-30 23:33N 59°53' E 030°14'1 0.8
2015-Jul-30 22:33N 59°54' E 030°13'0 0.0
2015-Jul-30 21:33N 59°54' E 030°13'0 0.0
2015-Jul-30 20:33N 59°54' E 030°13'0 0.0
2015-Jul-30 19:33N 59°54' E 030°13'1 0.7
2015-Jul-30 18:33N 59°53' E 030°13'0 0.1
2015-Jul-30 17:33N 59°53' E 030°13'0 0.0
2015-Jul-30 16:33N 59°53' E 030°13'0 0.0
2015-Jul-30 15:33N 59°53' E 030°13'0 0.1
2015-Jul-30 14:34N 59°53' E 030°13'1 0.7
2015-Jul-30 13:33N 59°54' E 030°13'0 0.0
2015-Jul-30 12:33N 59°54' E 030°13'0 0.0
2015-Jul-30 11:33N 59°54' E 030°13'0 0.0
2015-Jul-30 10:32N 59°54' E 030°13'1 0.8
2015-Jul-30 09:33N 59°53' E 030°13'0 0.0
2015-Jul-30 08:33N 59°53' E 030°13'0 0.0
2015-Jul-30 07:33N 59°53' E 030°13'1 1.0
2015-Jul-30 06:33N 59°53' E 030°12'7 7.3
2015-Jul-30 05:33N 59°56' E 029°58'6 0.6
2015-Jul-29 20:30N 59°56' E 029°46'0 0.1
2015-Jul-29 15:24N 59°56' E 029°47'6 7.1
2015-Jul-29 14:33N 59°55' E 029°59'6 6.4
2015-Jul-29 13:33N 59°57' E 030°11'0 0.0
2015-Jul-29 12:33N 59°57' E 030°11'0 0.0
2015-Jul-29 11:34N 59°57' E 030°11'0 0.0
2015-Jul-29 10:33N 59°57' E 030°11'0 0.0
2015-Jul-29 09:33N 59°57' E 030°11'0 0.0
2015-Jul-29 08:22N 59°57' E 030°11'0 0.0
2015-Jul-29 07:31N 59°57' E 030°11'0 0.0
2015-Jul-29 06:33N 59°57' E 030°11'1 1.1
2015-Jul-29 05:33N 59°57' E 030°09'10 9.7
2015-Jul-29 04:33N 59°57' E 029°50'2 0.2
2015-Jul-28 15:16N 59°56' E 029°47'5 6.9
2015-Jul-28 14:32N 59°56' E 029°57'7 7.4
2015-Jul-28 13:33N 59°57' E 030°11'0 0.0
2015-Jul-28 12:33N 59°57' E 030°11'0 0.0
2015-Jul-28 11:33N 59°57' E 030°11'0 0.0
2015-Jul-28 10:33N 59°57' E 030°11'0 0.0
2015-Jul-28 09:33N 59°57' E 030°11'0 0.0
2015-Jul-28 08:33N 59°57' E 030°12'4 4.2
2015-Jul-28 07:33N 59°56' E 030°03'6 5.8
2015-Jul-28 06:33N 59°53' E 030°13'0 0.1
2015-Jul-28 05:33N 59°53' E 030°13'0 0.0
2015-Jul-28 04:33N 59°53' E 030°13'6 6.1
2015-Jul-28 03:33N 59°55' E 030°02'1211.2
2015-Jul-28 02:31N 59°60' E 029°41'9 7.8
2015-Jul-28 01:19N 60°01' E 029°22'0 0.0
2015-Jul-27 22:10N 60°01' E 029°22'0 0.0
2015-Jul-27 20:22N 60°01' E 029°22'  
Track history (hours):
 
Tides and Currents Weather Stations Pressure Air Temp Water Temp Dewpoint Dewpoint Depression Visibility Wind Speed Wind Dir Waves Ship Positions

Gazpromneft East

Last reported at 2015-Aug-05 09:33 UTC. Time now 2015-Aug-05 10:28 UTC.
Position N 59°53' E 030°13'.

Length 79 m; draft 5 m.

Type: Tanker. MMSI: 273335320.

Date/timePositionNaut miles runAvg speedWind from/ knotsBaromVisibWave heightAir tempDewpointWater temp
2015-Aug-05 09:33N 59°53' E 030°13'0 0.0
2015-Aug-05 08:33N 59°53' E 030°13'0 0.0
2015-Aug-05 07:33N 59°53' E 030°13'0 0.1
2015-Aug-05 06:33N 59°53' E 030°13'0 0.5
2015-Aug-05 05:33N 59°53' E 030°13'0 0.0
2015-Aug-05 04:33N 59°53' E 030°13'0 0.0
2015-Aug-05 03:33N 59°53' E 030°13'0 0.0
2015-Aug-05 02:33N 59°53' E 030°13'0 0.0
2015-Aug-05 01:32N 59°53' E 030°13'0 0.0
2015-Aug-05 00:32N 59°53' E 030°13'0 0.3
2015-Aug-04 23:33N 59°53' E 030°13'1 1.0
2015-Aug-04 22:33N 59°52' E 030°12'0 0.0
2015-Aug-04 21:33N 59°52' E 030°12'0 0.0
2015-Aug-04 20:33N 59°52' E 030°12'1 1.0
2015-Aug-04 19:33N 59°53' E 030°13'1 0.5
2015-Aug-04 18:34N 59°53' E 030°14'0 0.0
2015-Aug-04 17:33N 59°53' E 030°14'0 0.0
2015-Aug-04 16:33N 59°53' E 030°14'3 3.2
2015-Aug-04 15:33N 59°56' E 030°17'0 0.1
2015-Aug-04 14:33N 59°56' E 030°16'0 0.0
2015-Aug-04 13:33N 59°56' E 030°16'0 0.0
2015-Aug-04 12:33N 59°56' E 030°16'0 0.0
2015-Aug-04 11:33N 59°56' E 030°16'0 0.0
2015-Aug-04 10:33N 59°56' E 030°16'0 0.0
2015-Aug-04 09:33N 59°56' E 030°16'0 0.0
2015-Aug-04 08:33N 59°56' E 030°16'0 0.0
2015-Aug-04 07:33N 59°56' E 030°16'2 1.8
2015-Aug-04 06:33N 59°55' E 030°14'7 7.1
2015-Aug-04 05:33N 59°55' E 029°60'7 0.7
2015-Aug-03 19:05N 59°56' E 029°46'0 0.0
2015-Aug-03 18:23N 59°56' E 029°46'5 5.5
2015-Aug-03 17:33N 59°56' E 029°55'8 8.3
2015-Aug-03 16:33N 59°57' E 030°12'0 0.0
2015-Aug-03 15:33N 59°57' E 030°12'0 0.0
2015-Aug-03 14:33N 59°57' E 030°12'0 0.0
2015-Aug-03 13:33N 59°57' E 030°12'0 0.0
2015-Aug-03 12:33N 59°57' E 030°12'0 0.0
2015-Aug-03 11:33N 59°57' E 030°12'0 0.0
2015-Aug-03 10:33N 59°57' E 030°12'0 0.0
2015-Aug-03 09:33N 59°57' E 030°12'0 0.0
2015-Aug-03 08:33N 59°57' E 030°12'0 0.0
2015-Aug-03 07:33N 59°57' E 030°12'0 0.0
2015-Aug-03 06:33N 59°57' E 030°12'7 7.1
2015-Aug-03 05:33N 59°56' E 029°58'6 5.6
2015-Aug-03 04:33N 59°56' E 029°46'0 0.0
2015-Aug-03 03:33N 59°56' E 029°46'0 0.0
2015-Aug-03 02:32N 59°56' E 029°46'0 0.0
2015-Aug-03 01:33N 59°56' E 029°46'0 0.0
2015-Aug-03 00:33N 59°56' E 029°46'0 0.0
2015-Aug-02 23:33N 59°56' E 029°46'0 0.2
2015-Aug-02 22:33N 59°56' E 029°47'7 7.3
2015-Aug-02 21:33N 59°55' E 030°01'5 5.5
2015-Aug-02 20:33N 59°53' E 030°11'0 0.0
2015-Aug-02 19:33N 59°53' E 030°11'0 0.0
2015-Aug-02 18:33N 59°53' E 030°11'0 0.0
2015-Aug-02 17:33N 59°53' E 030°11'0 0.0
2015-Aug-02 16:33N 59°53' E 030°11'0 0.0
2015-Aug-02 15:33N 59°53' E 030°11'0 0.0
2015-Aug-02 14:33N 59°53' E 030°11'0 0.0
2015-Aug-02 13:33N 59°53' E 030°11'0 0.0
2015-Aug-02 12:33N 59°53' E 030°11'0 0.0
2015-Aug-02 11:33N 59°53' E 030°11'0 0.0
2015-Aug-02 10:33N 59°53' E 030°11'1 1.2
2015-Aug-02 09:32N 59°53' E 030°14'0 0.0
2015-Aug-02 08:33N 59°53' E 030°14'0 0.0
2015-Aug-02 07:33N 59°53' E 030°14'0 0.0
2015-Aug-02 06:33N 59°53' E 030°14'0 0.0
2015-Aug-02 05:33N 59°53' E 030°14'0 0.0
2015-Aug-02 04:33N 59°53' E 030°14'0 0.4
2015-Aug-02 03:33N 59°53' E 030°13'0 0.2
2015-Aug-02 02:33N 59°54' E 030°14'0 0.0
2015-Aug-02 01:33N 59°54' E 030°14'0 0.0
2015-Aug-02 00:33N 59°54' E 030°14'0 0.0
2015-Aug-01 23:33N 59°54' E 030°14'0 0.0
2015-Aug-01 22:33N 59°54' E 030°14'0 0.0
2015-Aug-01 21:33N 59°54' E 030°14'0 0.0
2015-Aug-01 20:33N 59°54' E 030°14'0 0.0
2015-Aug-01 19:33N 59°54' E 030°14'0 0.0
2015-Aug-01 18:33N 59°54' E 030°14'0 0.0
2015-Aug-01 17:33N 59°54' E 030°14'1 0.6
2015-Aug-01 16:33N 59°53' E 030°13'0 0.0
2015-Aug-01 15:33N 59°53' E 030°13'0 0.0
2015-Aug-01 14:33N 59°53' E 030°13'0 0.2
2015-Aug-01 13:33N 59°53' E 030°13'8 7.9
2015-Aug-01 12:33N 59°56' E 029°58'6 5.9
2015-Aug-01 11:32N 59°56' E 029°46'0 0.0
2015-Aug-01 10:33N 59°56' E 029°46'0 0.0
2015-Aug-01 09:32N 59°56' E 029°46'0 0.0
2015-Aug-01 08:25N 59°56' E 029°46'0 0.0
2015-Aug-01 07:32N 59°56' E 029°46'0 0.0
2015-Aug-01 06:29N 59°56' E 029°46'0 0.0
2015-Aug-01 05:33N 59°56' E 029°46'0 0.0
2015-Aug-01 04:34N 59°56' E 029°46'0 0.0
2015-Aug-01 03:15N 59°56' E 029°46'0 0.0
2015-Aug-01 02:33N 59°56' E 029°46'0 0.0
2015-Aug-01 01:33N 59°56' E 029°46'0 0.0
2015-Aug-01 00:30N 59°56' E 029°46'0 0.0
2015-Jul-31 23:30N 59°56' E 029°46'0 0.0
2015-Jul-31 22:32N 59°56' E 029°46'0 0.0
2015-Jul-31 21:32N 59°56' E 029°46'0 0.0
2015-Jul-31 20:33N 59°56' E 029°46'0 0.0
2015-Jul-31 19:32N 59°56' E 029°46'0 0.0
2015-Jul-31 18:21N 59°56' E 029°46'0 0.0
2015-Jul-31 17:31N 59°56' E 029°46'4 4.0
2015-Jul-31 16:33N 59°57' E 029°54'9 8.6
2015-Jul-31 15:33N 59°57' E 030°11'0 0.0
2015-Jul-31 14:33N 59°57' E 030°11'0 0.0
2015-Jul-31 13:33N 59°57' E 030°11'0 0.0
2015-Jul-31 12:33N 59°57' E 030°11'0 0.0
2015-Jul-31 11:33N 59°57' E 030°11'0 0.0
2015-Jul-31 10:33N 59°57' E 030°11'0 0.0
2015-Jul-31 09:33N 59°57' E 030°11'0 0.0
2015-Jul-31 08:33N 59°57' E 030°11'5 4.6
2015-Jul-31 07:33N 59°55' E 030°03'6 5.6
2015-Jul-31 06:33N 59°53' E 030°14'0 0.0
2015-Jul-31 05:33N 59°53' E 030°14'0 0.0
2015-Jul-31 04:33N 59°53' E 030°14'0 0.0
2015-Jul-31 03:33N 59°53' E 030°14'0 0.0
2015-Jul-31 02:33N 59°53' E 030°14'0 0.0
2015-Jul-31 01:33N 59°53' E 030°14'0 0.0
2015-Jul-31 00:33N 59°53' E 030°14'0 0.0
2015-Jul-30 23:33N 59°53' E 030°14'1 0.8
2015-Jul-30 22:33N 59°54' E 030°13'0 0.0
2015-Jul-30 21:33N 59°54' E 030°13'0 0.0
2015-Jul-30 20:33N 59°54' E 030°13'0 0.0
2015-Jul-30 19:33N 59°54' E 030°13'1 0.7
2015-Jul-30 18:33N 59°53' E 030°13'0 0.1
2015-Jul-30 17:33N 59°53' E 030°13'0 0.0
2015-Jul-30 16:33N 59°53' E 030°13'0 0.0
2015-Jul-30 15:33N 59°53' E 030°13'0 0.1
2015-Jul-30 14:34N 59°53' E 030°13'1 0.7
2015-Jul-30 13:33N 59°54' E 030°13'0 0.0
2015-Jul-30 12:33N 59°54' E 030°13'0 0.0
2015-Jul-30 11:33N 59°54' E 030°13'0 0.0
2015-Jul-30 10:32N 59°54' E 030°13'1 0.8
2015-Jul-30 09:33N 59°53' E 030°13'0 0.0
2015-Jul-30 08:33N 59°53' E 030°13'0 0.0
2015-Jul-30 07:33N 59°53' E 030°13'1 1.0
2015-Jul-30 06:33N 59°53' E 030°12'7 7.3
2015-Jul-30 05:33N 59°56' E 029°58'6 0.6
2015-Jul-29 20:30N 59°56' E 029°46'0 0.1
2015-Jul-29 15:24N 59°56' E 029°47'6 7.1
2015-Jul-29 14:33N 59°55' E 029°59'6 6.4
2015-Jul-29 13:33N 59°57' E 030°11'0 0.0
2015-Jul-29 12:33N 59°57' E 030°11'0 0.0
2015-Jul-29 11:34N 59°57' E 030°11'0 0.0
2015-Jul-29 10:33N 59°57' E 030°11'0 0.0
2015-Jul-29 09:33N 59°57' E 030°11'0 0.0
2015-Jul-29 08:22N 59°57' E 030°11'0 0.0
2015-Jul-29 07:31N 59°57' E 030°11'0 0.0
2015-Jul-29 06:33N 59°57' E 030°11'1 1.1
2015-Jul-29 05:33N 59°57' E 030°09'10 9.7
2015-Jul-29 04:33N 59°57' E 029°50'2 0.2
2015-Jul-28 15:16N 59°56' E 029°47'5 6.9
2015-Jul-28 14:32N 59°56' E 029°57'7 7.4
2015-Jul-28 13:33N 59°57' E 030°11'0 0.0
2015-Jul-28 12:33N 59°57' E 030°11'0 0.0
2015-Jul-28 11:33N 59°57' E 030°11'0 0.0
2015-Jul-28 10:33N 59°57' E 030°11'0 0.0
2015-Jul-28 09:33N 59°57' E 030°11'0 0.0
2015-Jul-28 08:33N 59°57' E 030°12'4 4.2
2015-Jul-28 07:33N 59°56' E 030°03'6 5.8
2015-Jul-28 06:33N 59°53' E 030°13'0 0.1
2015-Jul-28 05:33N 59°53' E 030°13'0 0.0
2015-Jul-28 04:33N 59°53' E 030°13'6 6.1
2015-Jul-28 03:33N 59°55' E 030°02'1211.2
2015-Jul-28 02:31N 59°60' E 029°41'9 7.8
2015-Jul-28 01:19N 60°01' E 029°22'0 0.0
2015-Jul-27 22:10N 60°01' E 029°22'0 0.0
2015-Jul-27 20:22N 60°01' E 029°22'  

Dump ship's entire track history